Time;durP1;ratioP1;P1;durP2;ratioP2;P2;SDS_P1;SDS_P2;PMS_P1;PMS_P2;Temp;Humidity;BMP_temperature;BMP_pressure;BME280_temperature;BME280_humidity;BME280_pressure;Samples;Min_cycle;Max_cycle;Signal;HPM_P1;HPM_P2
2022/03/09 00:00:23;;;;;;;90.47;26.08;;;;;;;-6.82;70.59;99644.81;4844145;29;20136;-82
2022/03/09 00:02:49;;;;;;;65.85;25.52;;;;;;;-6.80;70.57;99649.16;4843638;29;20058;-82
2022/03/09 00:05:15;;;;;;;72.35;26.30;;;;;;;-6.76;70.59;99648.25;4843945;29;20579;-83
2022/03/09 00:07:41;;;;;;;61.67;24.85;;;;;;;-6.88;70.86;99643.13;4843813;29;20054;-85
2022/03/09 00:10:07;;;;;;;80.57;25.20;;;;;;;-6.84;70.82;99652.63;4812519;29;20053;-82
2022/03/09 00:12:34;;;;;;;73.32;25.40;;;;;;;-6.84;70.72;99642.25;4843274;29;20149;-82
2022/03/09 00:14:59;;;;;;;63.80;24.15;;;;;;;-6.82;70.70;99640.47;4812222;29;20149;-82
2022/03/09 00:17:25;;;;;;;85.05;24.17;;;;;;;-6.78;70.58;99644.78;4827452;29;20152;-84
2022/03/09 00:19:51;;;;;;;82.43;24.52;;;;;;;-6.75;70.50;99651.72;4827296;29;20418;-84
2022/03/09 00:22:18;;;;;;;63.30;24.23;;;;;;;-6.74;70.28;99653.44;4827099;29;20467;-85
2022/03/09 00:24:43;;;;;;;75.50;26.98;;;;;;;-6.66;70.55;99654.25;4826890;29;20145;-83
2022/03/09 00:27:10;;;;;;;69.07;25.33;;;;;;;-6.68;70.27;99651.66;4827102;29;20110;-82
2022/03/09 00:29:37;;;;;;;83.15;29.10;;;;;;;-6.71;70.20;99654.28;4827159;29;20058;-83
2022/03/09 00:32:04;;;;;;;68.35;26.13;;;;;;;-6.63;70.50;99654.25;4843276;29;20049;-86
2022/03/09 00:34:30;;;;;;;68.90;26.05;;;;;;;-6.60;70.03;99660.28;4811860;29;20054;-83
2022/03/09 00:36:56;;;;;;;59.47;26.50;;;;;;;-6.62;69.97;99656.84;4843254;29;20050;-84
2022/03/09 00:39:22;;;;;;;66.07;26.98;;;;;;;-6.70;69.67;99657.75;4842075;29;20062;-81
2022/03/09 00:41:48;;;;;;;73.47;26.15;;;;;;;-6.65;69.95;99651.66;4826985;29;20081;-83
2022/03/09 00:44:15;;;;;;;67.30;25.67;;;;;;;-6.57;70.04;99655.97;4826926;29;20058;-81
2022/03/09 00:46:42;;;;;;;74.43;26.52;;;;;;;-6.53;69.72;99647.25;4827189;29;20089;-83
2022/03/09 00:49:08;;;;;;;77.20;27.85;;;;;;;-6.48;69.83;99656.75;4842730;29;20082;-84
2022/03/09 00:51:34;;;;;;;69.47;26.20;;;;;;;-6.44;69.62;99657.59;4826788;29;20060;-83
2022/03/09 00:53:59;;;;;;;68.35;28.05;;;;;;;-6.55;69.56;99654.19;4843350;29;20501;-84
2022/03/09 00:56:25;;;;;;;65.55;25.92;;;;;;;-6.56;69.78;99632.53;4842843;29;20130;-83
2022/03/09 00:58:51;;;;;;;65.22;27.23;;;;;;;-6.37;69.65;99654.06;4837814;29;20060;-82
2022/03/09 01:01:17;;;;;;;77.32;27.85;;;;;;;-6.27;69.67;99653.16;4862075;29;20079;-83
2022/03/09 01:03:43;;;;;;;68.35;26.50;;;;;;;-6.22;69.70;99660.91;4849646;29;20061;-83
2022/03/09 01:06:09;;;;;;;68.78;26.70;;;;;;;-6.14;69.16;99654.78;4812058;29;20062;-82
2022/03/09 01:08:35;;;;;;;64.55;26.95;;;;;;;-6.09;69.26;99651.25;4826966;29;20056;-82
2022/03/09 01:11:01;;;;;;;81.50;28.25;;;;;;;-6.08;68.95;99658.22;4843647;29;20136;-84
2022/03/09 01:13:27;;;;;;;75.53;27.02;;;;;;;-6.05;69.01;99640.00;4827492;29;20065;-83
2022/03/09 01:15:53;;;;;;;71.95;27.02;;;;;;;-6.05;68.62;99645.19;4827821;29;20217;-84
2022/03/09 01:18:20;;;;;;;61.17;28.33;;;;;;;-5.97;69.01;99646.00;4843792;29;20157;-83
2022/03/09 01:20:46;;;;;;;67.00;27.35;;;;;;;-5.93;69.12;99638.13;4811337;29;20064;-81
2022/03/09 01:23:12;;;;;;;62.55;27.60;;;;;;;-5.81;68.84;99647.53;4842774;29;20069;-82
2022/03/09 01:25:38;;;;;;;59.42;26.85;;;;;;;-5.73;68.42;99640.50;4826117;29;20069;-82
2022/03/09 01:28:04;;;;;;;68.93;28.20;;;;;;;-5.70;68.53;99635.28;4826245;29;20502;-83
2022/03/09 01:30:30;;;;;;;67.63;27.42;;;;;;;-5.73;68.04;99635.31;4810969;29;20057;-83
2022/03/09 01:32:56;;;;;;;66.82;27.30;;;;;;;-5.63;68.13;99646.50;4842651;29;20118;-82
2022/03/09 01:35:23;;;;;;;74.18;29.08;;;;;;;-5.73;67.81;99640.50;4810941;29;20058;-83
2022/03/09 01:37:49;;;;;;;67.47;27.13;;;;;;;-5.74;67.96;99644.00;4811074;29;20054;-83
2022/03/09 01:40:15;;;;;;;67.47;27.65;;;;;;;-5.71;67.71;99637.91;4811342;29;20058;-84
2022/03/09 01:42:42;;;;;;;78.00;28.30;;;;;;;-5.62;68.08;99649.09;4842080;29;20064;-84
2022/03/09 01:45:11;;;;;;;61.83;26.15;;;;;;;-5.54;67.93;99649.00;4826109;29;20062;-82
2022/03/09 01:47:37;;;;;;;58.80;28.05;;;;;;;-5.49;68.06;99649.84;4826112;29;20062;-83
2022/03/09 01:50:05;;;;;;;67.07;29.00;;;;;;;-5.45;67.55;99648.06;4825898;29;20058;-84
2022/03/09 01:52:33;;;;;;;60.00;27.70;;;;;;;-5.47;67.55;99648.06;4795836;29;20471;-85
2022/03/09 01:54:59;;;;;;;62.90;26.92;;;;;;;-5.41;67.08;99647.16;4825556;29;20065;-82
2022/03/09 01:57:25;;;;;;;66.97;27.15;;;;;;;-5.33;67.25;99650.53;4843604;29;20066;-85
2022/03/09 01:59:52;;;;;;;52.25;25.63;;;;;;;-5.31;66.69;99648.75;4826289;29;20123;-83
2022/03/09 02:02:18;;;;;;;72.18;27.00;;;;;;;-5.29;66.96;99651.38;4811662;29;20434;-84
2022/03/09 02:04:46;;;;;;;61.00;28.10;;;;;;;-5.29;66.98;99654.84;4811124;29;20137;-84
2022/03/09 02:07:12;;;;;;;61.88;26.42;;;;;;;-5.24;67.09;99647.81;4842494;29;20087;-84
2022/03/09 02:09:41;;;;;;;62.45;25.88;;;;;;;-5.24;67.10;99640.00;4842302;29;20145;-84
2022/03/09 02:12:11;;;;;;;62.30;26.38;;;;;;;-5.19;66.70;99643.44;4826479;29;20057;-84
2022/03/09 02:14:40;;;;;;;58.47;26.13;;;;;;;-5.24;66.81;99634.78;4810783;29;20548;-82
2022/03/09 02:17:16;;;;;;;54.97;24.20;;;;;;;-5.20;66.70;99641.69;4810968;29;20050;-84
2022/03/09 02:19:46;;;;;;;71.07;24.98;;;;;;;-5.18;66.60;99645.16;4810742;29;20299;-83
2022/03/09 02:22:21;;;;;;;60.08;25.95;;;;;;;-5.15;66.77;99650.34;4826190;29;20069;-82
2022/03/09 02:24:49;;;;;;;83.32;27.92;;;;;;;-5.08;66.43;99639.81;4825727;29;20200;-82
2022/03/09 02:27:15;;;;;;;55.75;24.45;;;;;;;-5.10;66.60;99645.06;4841051;29;20060;-86
2022/03/09 02:29:41;;;;;;;74.10;26.48;;;;;;;-5.10;66.81;99644.19;4826461;29;20054;-83
2022/03/09 02:32:08;;;;;;;63.65;27.00;;;;;;;-5.03;66.71;99651.06;4844241;29;20062;-85
2022/03/09 02:34:34;;;;;;;62.92;27.77;;;;;;;-5.03;66.45;99651.06;4812062;29;20058;-83
2022/03/09 02:37:00;;;;;;;66.47;25.25;;;;;;;-5.03;66.65;99640.66;4815166;29;20046;-82
2022/03/09 02:39:26;;;;;;;59.80;24.10;;;;;;;-5.09;66.62;99648.53;4848093;29;20061;-85
2022/03/09 02:41:52;;;;;;;52.20;23.98;;;;;;;-5.14;66.17;99654.66;4830309;29;20049;-85
2022/03/09 02:44:18;;;;;;;59.47;24.65;;;;;;;-5.16;66.65;99650.34;4815286;29;20073;-83
2022/03/09 02:46:45;;;;;;;54.50;23.98;;;;;;;-5.17;66.58;99646.88;4846185;29;20053;-89
2022/03/09 02:49:11;;;;;;;52.10;24.17;;;;;;;-5.22;66.60;99653.88;4828679;29;20057;-83
2022/03/09 02:51:37;;;;;;;55.10;22.92;;;;;;;-5.23;66.68;99665.19;4828843;29;20066;-85
2022/03/09 02:54:03;;;;;;;56.72;23.13;;;;;;;-5.16;66.95;99651.19;4828645;29;20062;-87
2022/03/09 02:56:31;;;;;;;55.08;22.63;;;;;;;-5.08;66.59;99658.91;4845126;29;20058;-84
2022/03/09 02:58:57;;;;;;;64.32;22.17;;;;;;;-5.14;66.38;99646.84;4814208;29;20114;-84
2022/03/09 03:01:23;;;;;;;54.35;21.00;;;;;;;-5.04;66.25;99657.16;4828624;29;20058;-81
2022/03/09 03:03:49;;;;;;;52.22;22.85;;;;;;;-5.16;66.52;99659.00;4829590;29;20056;-87
2022/03/09 03:06:15;;;;;;;54.10;21.75;;;;;;;-5.25;65.99;99653.06;4798730;29;20452;-84
2022/03/09 03:08:41;;;;;;;52.83;22.30;;;;;;;-5.32;66.44;99661.81;4828593;29;20415;-84
2022/03/09 03:11:09;;;;;;;60.17;23.10;;;;;;;-5.34;66.35;99659.25;4830530;29;20062;-92
2022/03/09 03:13:37;;;;;;;56.47;22.88;;;;;;;-5.25;66.76;99656.53;4829229;29;20054;-86
2022/03/09 03:16:04;;;;;;;54.90;22.40;;;;;;;-5.12;66.67;99654.63;4828154;29;20148;-83
2022/03/09 03:18:30;;;;;;;44.53;22.55;;;;;;;-4.96;66.51;99661.41;4823201;29;20090;-87
2022/03/09 03:20:56;;;;;;;64.78;25.35;;;;;;;-4.87;66.20;99650.00;4845030;29;20057;-85
2022/03/09 03:23:22;;;;;;;65.97;23.88;;;;;;;-4.71;66.09;99654.13;4845383;29;20147;-84
2022/03/09 03:25:53;;;;;;;70.47;23.30;;;;;;;-4.56;65.79;99665.22;4844838;29;20458;-84
2022/03/09 03:28:20;;;;;;;61.72;22.63;;;;;;;-4.51;65.41;99659.09;4829580;29;20054;-79
2022/03/09 03:30:47;;;;;;;50.80;23.02;;;;;;;-4.47;65.64;99660.75;4828990;29;20173;-86
2022/03/09 03:33:14;;;;;;;56.90;23.58;;;;;;;-4.32;65.61;99680.56;4816027;29;20058;-79
2022/03/09 03:35:41;;;;;;;58.78;24.25;;;;;;;-4.25;65.24;99669.16;4828146;29;20579;-82
2022/03/09 03:38:07;;;;;;;67.43;20.70;;;;;;;-4.18;65.38;99673.34;4813308;29;20072;-88
2022/03/09 03:40:33;;;;;;;55.55;22.08;;;;;;;-4.22;65.50;99676.91;4798084;29;20060;-75
2022/03/09 03:42:59;;;;;;;42.42;19.77;;;;;;;-4.11;66.03;99675.88;4845470;29;20054;-81
2022/03/09 03:45:25;;;;;;;49.33;21.27;;;;;;;-3.98;65.69;99682.66;4829358;29;20058;-80
2022/03/09 03:47:51;;;;;;;44.30;20.33;;;;;;;-3.84;65.58;99678.06;4834235;29;20808;-77
2022/03/09 03:50:18;;;;;;;45.88;18.90;;;;;;;-3.68;65.90;99679.53;4859381;29;20525;-85
2022/03/09 03:52:44;;;;;;;41.53;19.00;;;;;;;-3.55;65.59;99674.09;4846665;29;20061;-81
2022/03/09 03:55:10;;;;;;;37.38;16.15;;;;;;;-3.41;65.44;99685.19;4830884;29;20050;-87
2022/03/09 03:57:38;;;;;;;38.55;17.92;;;;;;;-3.23;65.25;99671.78;4831122;29;20088;-84
2022/03/09 04:00:06;;;;;;;35.28;17.20;;;;;;;-3.04;65.30;99676.66;4845862;29;20481;-85
2022/03/09 04:02:32;;;;;;;40.40;16.88;;;;;;;-2.82;65.01;99680.56;4845952;29;20073;-77
2022/03/09 04:04:57;;;;;;;46.40;17.23;;;;;;;-2.64;64.33;99681.06;4862653;29;20066;-82
2022/03/09 04:07:23;;;;;;;41.83;17.92;;;;;;;-2.57;64.33;99683.50;4830540;29;20061;-80
2022/03/09 04:09:49;;;;;;;36.25;17.70;;;;;;;-2.46;63.55;99684.16;4862136;29;20395;-80
2022/03/09 04:12:15;;;;;;;38.63;17.55;;;;;;;-2.35;63.62;99677.81;4830660;29;20049;-83
2022/03/09 04:14:42;;;;;;;42.33;17.25;;;;;;;-2.24;63.48;99676.69;4830576;29;20060;-80
2022/03/09 04:17:09;;;;;;;40.15;17.08;;;;;;;-2.05;62.87;99677.13;4845609;29;20140;-81
2022/03/09 04:19:35;;;;;;;38.63;17.27;;;;;;;-1.89;62.49;99687.22;4845788;29;20281;-81
2022/03/09 04:22:00;;;;;;;33.95;16.42;;;;;;;-1.82;62.06;99678.31;4845576;29;20058;-80
2022/03/09 04:24:26;;;;;;;34.25;15.80;;;;;;;-1.67;61.63;99692.81;4861930;29;20057;-83
2022/03/09 04:26:52;;;;;;;34.25;14.82;;;;;;;-1.54;61.46;99699.50;4845405;29;20053;-82
2022/03/09 04:29:18;;;;;;;31.88;14.65;;;;;;;-1.53;60.90;99693.34;4845454;29;20090;-82
2022/03/09 04:31:44;;;;;;;26.52;13.45;;;;;;;-1.42;60.99;99687.84;4830219;29;20064;-79
2022/03/09 04:34:10;;;;;;;27.88;13.23;;;;;;;-1.38;60.60;99698.19;4860668;29;20049;-79
2022/03/09 04:36:36;;;;;;;26.70;11.68;;;;;;;-1.24;60.57;99688.22;4861601;29;20057;-81
2022/03/09 04:39:08;;;;;;;32.05;13.60;;;;;;;-1.03;60.17;99701.63;4861636;29;20057;-83
2022/03/09 04:41:34;;;;;;;21.17;10.57;;;;;;;-1.08;60.17;99698.28;4845449;29;20132;-83
2022/03/09 04:44:00;;;;;;;26.52;11.02;;;;;;;-1.01;60.02;99697.22;4851014;29;20077;-81
2022/03/09 04:46:26;;;;;;;25.80;12.43;;;;;;;-1.19;59.91;99697.72;4875111;29;20057;-81
2022/03/09 04:48:53;;;;;;;29.40;11.85;;;;;;;-1.09;60.27;99700.06;4856620;29;20090;-81
2022/03/09 04:51:18;;;;;;;24.08;11.75;;;;;;;-0.93;59.71;99681.28;4865563;29;20049;-81
2022/03/09 04:53:44;;;;;;;24.35;13.40;;;;;;;-0.75;58.95;99689.47;4866526;29;20057;-83
2022/03/09 04:56:11;;;;;;;35.42;14.02;;;;;;;-0.74;59.01;99691.19;4864340;29;20058;-80
2022/03/09 04:58:37;;;;;;;38.83;15.52;;;;;;;-0.65;59.10;99692.69;4865264;29;20214;-82
2022/03/09 05:01:03;;;;;;;30.45;14.80;;;;;;;-0.48;58.87;99702.72;4832281;29;20507;-85
2022/03/09 05:03:30;;;;;;;28.85;15.43;;;;;;;-0.33;58.17;99704.88;4862411;29;20086;-81
2022/03/09 05:05:56;;;;;;;34.05;16.05;;;;;;;-0.29;57.83;99700.41;4845528;29;20076;-83
2022/03/09 05:08:23;;;;;;;38.33;15.40;;;;;;;-0.45;57.02;99702.63;4861343;29;20061;-82
2022/03/09 05:10:48;;;;;;;37.40;17.58;;;;;;;-0.51;58.06;99692.31;4845124;29;20114;-82
2022/03/09 05:13:14;;;;;;;28.65;14.98;;;;;;;-0.28;58.10;99708.22;4861751;29;20064;-82
2022/03/09 05:15:40;;;;;;;26.33;13.98;;;;;;;-0.29;57.04;99698.63;4861635;29;20063;-81
2022/03/09 05:18:06;;;;;;;26.90;13.82;;;;;;;-0.20;57.77;99699.25;4861606;29;20045;-82
2022/03/09 05:20:32;;;;;;;28.35;13.32;;;;;;;-0.27;57.33;99704.69;4844436;29;20141;-81
2022/03/09 05:22:58;;;;;;;25.77;12.05;;;;;;;-0.11;57.45;99704.25;4844633;29;20140;-81
2022/03/09 05:25:23;;;;;;;23.75;12.25;;;;;;;0.02;56.41;99689.81;4844422;29;20589;-80
2022/03/09 05:27:49;;;;;;;22.30;12.25;;;;;;;0.09;56.74;99706.25;4860815;29;20117;-81
2022/03/09 05:30:15;;;;;;;22.60;11.98;;;;;;;0.31;56.03;99715.19;4844564;29;20053;-80
2022/03/09 05:32:42;;;;;;;23.17;11.95;;;;;;;0.13;55.70;99713.97;4861059;29;20068;-80
2022/03/09 05:35:11;;;;;;;20.55;10.82;;;;;;;0.06;56.71;99711.59;4860605;29;20121;-82
2022/03/09 05:37:38;;;;;;;21.25;11.63;;;;;;;0.16;56.09;99713.03;4829083;29;20072;-81
2022/03/09 05:40:06;;;;;;;19.75;9.85;;;;;;;0.15;56.03;99717.44;4844084;29;20061;-80
2022/03/09 05:42:32;;;;;;;16.83;9.57;;;;;;;0.47;55.58;99720.78;4861237;29;20113;-82
2022/03/09 05:44:58;;;;;;;19.48;9.68;;;;;;;0.36;54.65;99720.28;4814220;29;20092;-84
2022/03/09 05:47:24;;;;;;;16.83;8.05;;;;;;;0.10;55.19;99714.06;4844667;29;20086;-82
2022/03/09 05:49:50;;;;;;;21.48;10.63;;;;;;;0.29;55.37;99719.59;4844683;29;20057;-82
2022/03/09 05:52:16;;;;;;;19.33;9.32;;;;;;;0.52;55.42;99710.09;4860590;29;20053;-84
2022/03/09 05:54:42;;;;;;;23.30;8.40;;;;;;;0.59;54.82;99716.88;4843989;29;20053;-84
2022/03/09 05:57:08;;;;;;;20.48;7.95;;;;;;;0.58;54.29;99713.41;4860632;29;20078;-83
2022/03/09 05:59:34;;;;;;;17.55;8.05;;;;;;;0.72;54.53;99713.81;4844036;29;20057;-81
2022/03/09 06:01:59;;;;;;;13.88;7.07;;;;;;;0.85;54.26;99718.63;4864920;29;20421;-83
2022/03/09 06:04:25;;;;;;;12.32;7.30;;;;;;;0.57;54.07;99714.31;4861555;29;20050;-85
2022/03/09 06:06:51;;;;;;;11.60;6.72;;;;;;;0.77;54.37;99721.53;4814578;29;20065;-85
2022/03/09 06:09:17;;;;;;;10.15;6.15;;;;;;;0.83;54.48;99716.06;4843884;29;20141;-82
2022/03/09 06:11:43;;;;;;;13.48;6.95;;;;;;;1.11;53.91;99720.38;4863523;29;20053;-82
2022/03/09 06:14:09;;;;;;;10.25;6.18;;;;;;;1.24;53.39;99712.88;4847458;29;20548;-83
2022/03/09 06:16:36;;;;;;;10.48;6.07;;;;;;;1.43;52.51;99716.59;4847354;29;20057;-84
2022/03/09 06:19:02;;;;;;;9.95;6.28;;;;;;;1.28;52.91;99717.13;4863917;29;20177;-81
2022/03/09 06:21:28;;;;;;;9.90;6.72;;;;;;;1.52;51.93;99712.75;4847391;29;20057;-83
2022/03/09 06:23:54;;;;;;;12.63;6.00;;;;;;;1.51;51.08;99708.41;4847479;29;20148;-83
2022/03/09 06:26:20;;;;;;;11.65;6.32;;;;;;;1.49;51.19;99718.13;4863840;29;20064;-83
2022/03/09 06:28:46;;;;;;;10.43;6.03;;;;;;;1.25;51.62;99719.88;4832424;29;20045;-82
2022/03/09 06:31:11;;;;;;;12.88;6.40;;;;;;;1.34;51.93;99717.75;4847785;29;20491;-84
2022/03/09 06:33:37;;;;;;;13.18;7.18;;;;;;;1.68;51.69;99717.38;4831538;29;20053;-82
2022/03/09 06:36:06;;;;;;;13.95;6.70;;;;;;;1.92;50.69;99722.66;4847178;29;20088;-82
2022/03/09 06:38:33;;;;;;;11.30;6.88;;;;;;;2.15;50.96;99727.88;4863910;29;20060;-83
2022/03/09 06:40:59;;;;;;;13.07;6.90;;;;;;;2.35;50.62;99716.50;4831975;29;20216;-83
2022/03/09 06:43:25;;;;;;;12.63;6.80;;;;;;;2.62;50.04;99738.28;4816630;29;20207;-83
2022/03/09 06:45:52;;;;;;;35.50;7.53;;;;;;;2.57;49.85;99724.41;4832112;29;20105;-82
2022/03/09 06:48:18;;;;;;;13.32;5.95;;;;;;;2.75;49.46;99735.16;4832146;29;20095;-82
2022/03/09 06:50:44;;;;;;;11.85;6.00;;;;;;;2.76;49.82;99734.22;4847399;29;20062;-82
2022/03/09 06:53:11;;;;;;;8.98;6.25;;;;;;;2.78;49.24;99732.34;4847231;29;20080;-81
2022/03/09 06:55:37;;;;;;;10.60;6.88;;;;;;;2.76;48.66;99739.50;4831204;29;20554;-82
2022/03/09 06:58:03;;;;;;;9.63;5.80;;;;;;;3.10;48.85;99737.13;4847281;29;20057;-80
2022/03/09 07:00:29;;;;;;;10.93;6.38;;;;;;;2.63;47.34;99740.00;4831412;29;20403;-82
2022/03/09 07:02:56;;;;;;;12.40;6.93;;;;;;;2.19;48.57;99742.66;4846773;29;20056;-81
2022/03/09 07:05:23;;;;;;;10.73;6.78;;;;;;;2.25;50.21;99746.81;4846842;29;20068;-82
2022/03/09 07:07:49;;;;;;;12.82;6.85;;;;;;;2.45;48.89;99746.03;4863125;29;20133;-81
2022/03/09 07:10:17;;;;;;;12.30;7.20;;;;;;;2.19;49.62;99741.78;4863202;29;20054;-83
2022/03/09 07:12:45;;;;;;;12.48;6.90;;;;;;;2.72;49.13;99745.81;4846899;29;20073;-83
2022/03/09 07:15:11;;;;;;;15.90;6.38;;;;;;;3.08;48.96;99744.25;4863346;29;20057;-81
2022/03/09 07:17:38;;;;;;;11.18;6.68;;;;;;;3.36;47.56;99740.44;4831462;29;20193;-83
2022/03/09 07:20:05;;;;;;;14.05;8.32;;;;;;;3.45;47.26;99745.28;4862946;29;20054;-82
2022/03/09 07:22:32;;;;;;;11.63;8.23;;;;;;;3.83;47.13;99745.34;4830803;29;20391;-82
2022/03/09 07:24:58;;;;;;;8.82;6.47;;;;;;;3.82;46.92;99748.94;4846486;29;20057;-80
2022/03/09 07:27:24;;;;;;;9.60;6.80;;;;;;;4.10;46.59;99740.59;4831016;29;20049;-81
2022/03/09 07:29:49;;;;;;;10.40;6.25;;;;;;;4.56;46.11;99741.00;4846287;29;20057;-84
2022/03/09 07:32:15;;;;;;;16.65;7.25;;;;;;;4.62;45.64;99741.53;4815791;29;20578;-82
2022/03/09 07:34:42;;;;;;;10.18;6.50;;;;;;;4.38;44.99;99727.72;4830732;29;20057;-82
2022/03/09 07:37:08;;;;;;;10.43;6.07;;;;;;;4.65;43.75;99737.06;4846193;29;20205;-82
2022/03/09 07:39:35;;;;;;;12.77;6.35;;;;;;;4.52;43.96;99735.00;4830956;29;20049;-79
2022/03/09 07:42:01;;;;;;;9.90;6.38;;;;;;;4.78;44.12;99736.38;4863615;29;20092;-82
2022/03/09 07:44:28;;;;;;;8.50;5.97;;;;;;;5.25;43.48;99729.56;4830685;29;20146;-82
2022/03/09 07:46:54;;;;;;;7.65;5.85;;;;;;;5.46;42.02;99733.75;4846138;29;20144;-82
2022/03/09 07:49:21;;;;;;;11.70;6.70;;;;;;;5.28;42.21;99740.88;4815626;29;20099;-82
2022/03/09 07:51:47;;;;;;;10.25;6.95;;;;;;;5.22;42.60;99737.69;4846104;29;20053;-83
2022/03/09 07:54:13;;;;;;;12.73;6.45;;;;;;;5.41;43.15;99740.22;4830688;29;20057;-81
2022/03/09 07:56:41;;;;;;;14.35;7.25;;;;;;;5.28;43.37;99734.72;4862325;29;20049;-83
2022/03/09 07:59:08;;;;;;;8.57;6.53;;;;;;;5.10;42.77;99723.28;4862314;29;20092;-83
2022/03/09 08:01:34;;;;;;;10.82;6.85;;;;;;;5.39;43.19;99742.13;4815652;29;20114;-82
2022/03/09 08:04:00;;;;;;;9.57;7.07;;;;;;;5.36;42.27;99732.53;4845652;29;20057;-81
2022/03/09 08:06:27;;;;;;;9.85;6.85;;;;;;;5.00;42.65;99740.56;4862418;29;20049;-81
2022/03/09 08:08:53;;;;;;;9.40;7.22;;;;;;;4.76;43.38;99737.38;4830516;29;20096;-81
2022/03/09 08:11:19;;;;;;;10.80;7.57;;;;;;;4.57;43.85;99740.94;4830565;29;20506;-82
2022/03/09 08:13:44;;;;;;;11.10;7.47;;;;;;;4.38;44.17;99738.31;4862132;29;20489;-81
2022/03/09 08:16:10;;;;;;;11.30;7.25;;;;;;;4.31;44.32;99736.03;4845381;29;20049;-81
2022/03/09 08:18:38;;;;;;;9.30;6.50;;;;;;;4.01;44.39;99748.94;4829977;29;20059;-81
2022/03/09 08:21:04;;;;;;;10.93;6.68;;;;;;;3.93;44.75;99745.78;4830310;29;20128;-81
2022/03/09 08:23:30;;;;;;;11.68;7.43;;;;;;;3.94;45.43;99748.34;4830818;29;20491;-81
2022/03/09 08:25:56;;;;;;;15.60;8.07;;;;;;;3.70;45.86;99745.06;4830955;29;20160;-82
2022/03/09 08:28:21;;;;;;;8.93;7.00;;;;;;;3.23;46.71;99750.66;4833028;29;20061;-82
2022/03/09 08:30:49;;;;;;;11.95;8.02;;;;;;;3.20;47.75;99745.53;4876333;29;20142;-83
2022/03/09 08:33:15;;;;;;;12.23;7.55;;;;;;;3.47;46.73;99735.53;4880098;29;20062;-83
2022/03/09 08:35:41;;;;;;;11.70;7.20;;;;;;;3.75;47.05;99752.78;4866817;29;20399;-82
2022/03/09 08:38:09;;;;;;;10.80;7.13;;;;;;;3.88;46.93;99746.00;4862226;29;20057;-82
2022/03/09 08:40:35;;;;;;;10.67;6.93;;;;;;;4.11;47.16;99743.16;4845566;29;20058;-82
2022/03/09 08:43:01;;;;;;;10.68;6.57;;;;;;;4.24;47.08;99746.06;4861659;29;20715;-82
2022/03/09 08:45:27;;;;;;;9.82;6.75;;;;;;;4.43;46.85;99739.88;4845114;29;20057;-81
2022/03/09 08:47:53;;;;;;;9.43;6.72;;;;;;;4.75;46.45;99747.13;4861319;29;20475;-80
2022/03/09 08:50:19;;;;;;;7.43;6.63;;;;;;;4.77;44.84;99745.22;4861803;29;20170;-80
2022/03/09 08:52:45;;;;;;;8.65;6.75;;;;;;;4.91;44.85;99743.69;4861138;29;20109;-81
2022/03/09 08:55:11;;;;;;;9.57;6.55;;;;;;;4.98;44.19;99748.59;4845531;29;20057;-81
2022/03/09 08:57:38;;;;;;;8.32;6.50;;;;;;;4.80;44.54;99738.94;4861438;29;20065;-82
2022/03/09 09:00:06;;;;;;;12.93;9.10;;;;;;;4.86;44.80;99749.22;4861176;29;20528;-82
2022/03/09 09:02:34;;;;;;;12.30;7.70;;;;;;;4.66;45.24;99746.69;4861187;29;20502;-83
2022/03/09 09:05:00;;;;;;;8.20;6.50;;;;;;;4.61;44.91;99750.44;4829302;29;20506;-83
2022/03/09 09:07:26;;;;;;;8.82;7.25;;;;;;;4.79;45.65;99746.03;4844426;29;20053;-86
2022/03/09 09:09:52;;;;;;;9.18;7.35;;;;;;;5.04;44.62;99747.41;4829628;29;20148;-82
2022/03/09 09:12:18;;;;;;;9.00;7.43;;;;;;;5.07;44.62;99752.56;4845300;29;20068;-81
2022/03/09 09:14:44;;;;;;;10.00;7.25;;;;;;;5.08;44.46;99749.88;4844475;29;20057;-81
2022/03/09 09:17:10;;;;;;;8.18;6.70;;;;;;;5.16;44.35;99746.81;4844387;29;20085;-81
2022/03/09 09:19:36;;;;;;;7.82;6.88;;;;;;;5.24;44.65;99751.72;4828886;29;20111;-83
2022/03/09 09:22:03;;;;;;;10.43;7.30;;;;;;;4.94;44.61;99747.06;4844434;29;20054;-83
2022/03/09 09:24:29;;;;;;;13.02;6.97;;;;;;;4.38;45.50;99745.41;4829443;29;20178;-83
2022/03/09 09:26:55;;;;;;;8.25;6.90;;;;;;;4.33;46.73;99756.22;4829216;29;20172;-83
2022/03/09 09:29:21;;;;;;;12.48;7.97;;;;;;;4.57;46.48;99748.88;4844317;29;20139;-81
2022/03/09 09:31:48;;;;;;;7.80;6.68;;;;;;;4.92;46.14;99750.69;4844375;29;20068;-81
2022/03/09 09:34:15;;;;;;;6.95;6.25;;;;;;;4.80;45.88;99744.22;4813825;29;20587;-82
2022/03/09 09:36:45;;;;;;;12.02;6.97;;;;;;;4.93;46.03;99739.16;4814224;29;20105;-83
2022/03/09 09:39:13;;;;;;;8.38;7.25;;;;;;;4.88;46.07;99731.44;4829443;29;20053;-81
2022/03/09 09:41:42;;;;;;;10.75;8.25;;;;;;;5.44;45.46;99742.72;4866499;29;20057;-82
2022/03/09 09:44:12;;;;;;;10.07;7.00;;;;;;;5.78;44.91;99739.13;4836582;29;20061;-81
2022/03/09 09:46:39;;;;;;;9.52;7.70;;;;;;;5.75;44.42;99733.97;4851466;29;20060;-81
2022/03/09 09:49:08;;;;;;;8.32;6.57;;;;;;;5.94;44.07;99737.41;4832399;29;20064;-82
2022/03/09 09:51:37;;;;;;;9.27;7.13;;;;;;;5.53;43.87;99731.66;4813816;29;20057;-81
2022/03/09 09:54:05;;;;;;;11.60;7.43;;;;;;;5.39;44.58;99736.81;4860797;29;20144;-83
2022/03/09 09:56:35;;;;;;;12.57;7.03;;;;;;;5.77;44.71;99740.94;4828821;29;20053;-81
2022/03/09 09:59:01;;;;;;;9.90;6.90;;;;;;;6.04;44.14;99738.59;4814123;29;20079;-82
2022/03/09 10:01:28;;;;;;;7.55;6.63;;;;;;;6.25;43.66;99741.03;4829190;29;20517;-82
2022/03/09 10:03:54;;;;;;;8.55;7.10;;;;;;;5.60;43.46;99739.19;4813830;29;20506;-82
2022/03/09 10:06:20;;;;;;;10.02;7.93;;;;;;;5.29;44.67;99736.44;4829059;29;20073;-82
2022/03/09 10:09:19;;;;;;;8.95;6.93;;;;;;;5.70;44.83;99736.88;4860836;29;20474;-83
2022/03/09 10:11:48;;;;;;;7.55;6.40;;;;;;;5.89;43.80;99728.78;4780228;29;20054;-81
2022/03/09 10:14:16;;;;;;;9.10;6.53;;;;;;;6.07;43.60;99730.47;4829009;29;20109;-83
2022/03/09 10:17:00;;;;;;;9.35;7.40;;;;;;;6.31;43.75;99732.69;4828671;29;20084;-82
2022/03/09 10:19:35;;;;;;;7.57;6.78;;;;;;;6.40;42.89;99729.53;4813440;29;20058;-82
2022/03/09 10:22:23;;;;;;;10.18;7.03;;;;;;;6.53;42.35;99730.53;4828926;29;20064;-82
2022/03/09 10:24:49;;;;;;;7.45;6.70;;;;;;;6.61;42.67;99734.56;4813831;29;20422;-83
2022/03/09 10:27:37;;;;;;;11.50;8.00;;;;;;;6.73;42.26;99728.53;4843316;29;20129;-83
2022/03/09 10:30:05;;;;;;;9.95;7.00;;;;;;;6.57;42.49;99734.72;4860089;29;20059;-82
2022/03/09 10:32:48;;;;;;;10.00;7.68;;;;;;;6.25;42.64;99733.91;4829203;29;20049;-81
2022/03/09 10:35:17;;;;;;;8.25;7.10;;;;;;;6.34;42.52;99740.50;4843768;29;20068;-82
2022/03/09 10:37:45;;;;;;;15.57;10.68;;;;;;;6.51;42.62;99734.25;4843696;29;20460;-81
2022/03/09 10:40:19;;;;;;;9.82;7.90;;;;;;;5.92;42.46;99733.97;4843519;29;20498;-82
2022/03/09 10:42:47;;;;;;;7.75;6.93;;;;;;;5.91;42.57;99729.59;4843928;29;20061;-81
2022/03/09 10:45:14;;;;;;;10.50;8.68;;;;;;;6.03;43.10;99734.25;4828340;29;20049;-81
2022/03/09 10:47:44;;;;;;;9.98;7.47;;;;;;;5.88;42.68;99732.41;4859927;29;20053;-82
2022/03/09 10:50:18;;;;;;;9.85;7.65;;;;;;;5.94;42.83;99737.41;4844177;29;20059;-82
2022/03/09 10:52:45;;;;;;;8.75;7.63;;;;;;;5.97;42.73;99739.88;4844221;29;20078;-83
2022/03/09 10:55:30;;;;;;;9.05;6.18;;;;;;;4.68;43.94;99751.00;4828288;29;20061;-81
2022/03/09 10:58:19;;;;;;;11.13;6.72;;;;;;;4.07;45.25;99760.09;4861576;29;20494;-81
2022/03/09 11:00:51;;;;;;;8.52;7.18;;;;;;;4.61;45.34;99734.53;4847080;29;20061;-82
2022/03/09 11:03:21;;;;;;;7.38;6.47;;;;;;;4.47;45.10;99744.09;4863596;29;20069;-82
2022/03/09 11:05:55;;;;;;;7.95;6.97;;;;;;;4.50;45.26;99747.44;4831492;29;20061;-81
2022/03/09 11:08:24;;;;;;;8.82;7.32;;;;;;;4.77;44.65;99737.28;4831558;29;20414;-81
2022/03/09 11:10:50;;;;;;;8.90;6.85;;;;;;;4.48;44.69;99744.03;4831212;29;20100;-80
2022/03/09 11:13:17;;;;;;;7.72;6.30;;;;;;;4.02;45.32;99743.56;4831234;29;20535;-80
2022/03/09 11:15:47;;;;;;;8.32;6.50;;;;;;;3.79;45.63;99743.78;4831143;29;20136;-80
2022/03/09 11:18:20;;;;;;;;;;;;;;;3.96;45.87;99756.25;4863465;29;20049;-80
2022/03/09 11:20:52;;;;;;;9.48;7.35;;;;;;;3.80;46.08;99742.84;4831603;29;20404;-81
2022/03/09 11:23:19;;;;;;;14.65;11.32;;;;;;;3.72;46.25;99756.41;4863017;29;20569;-83
2022/03/09 11:26:00;;;;;;;24.67;14.32;;;;;;;3.25;46.76;99747.97;4846338;29;20510;-82